Terminal Aerodrome Forecast
Issued by NWS Shreveport, LA

Home | Current Version | Previous Version | Text Only | Print | Product List | Glossary On
Versions: 1 2 3 4 5 6 7 8 9 10 11 12 13 14 15 16
545
FTUS44 KSHV 170102 AAA
TAFTYR
TAF AMD
KTYR 170102Z 1701/1724 15009KT P6SM SCT250
     FM171200 19010KT P6SM VCTS BKN020CB
     FM171800 22005KT P6SM VCTS BKN035CB=

USA.gov is the U.S. government's official web portal to all federal, state and local government web resources and services.